This is the latest recevied weather packets stored in our database for station/object SP1BMW-13. If no packets are shown the sender has not sent any weather packets the latest 10 day(s).
| Time | Temp. | Humidity | Pressure | Rain* | Wind** | Luminosity | Snow |
|---|---|---|---|---|---|---|---|
| 1787931197 | 23.89° C | 60% | 1008.4 hPa | 0 mm | 0.89 m/s, 350° | 93 W/m² | - |
| 1787931137 | 23.89° C | 60% | 1008.3 hPa | 0 mm | 0.89 m/s, 46° | 92 W/m² | - |
| 1787931077 | 23.89° C | 60% | 1008.5 hPa | 0 mm | 0.89 m/s, 41° | 91 W/m² | - |
| 1787931018 | 23.89° C | 61% | 1008.4 hPa | 0 mm | 0 m/s | 90 W/m² | - |
| 1787930958 | 23.89° C | 60% | 1008.4 hPa | 0 mm | 0 m/s | 89 W/m² | - |
| 1787930899 | 23.89° C | 59% | 1008.5 hPa | 0 mm | 0.45 m/s, 350° | 89 W/m² | - |
| 1787930838 | 23.89° C | 59% | 1008.5 hPa | 0 mm | 0.89 m/s, 99° | 89 W/m² | - |
| 1787930778 | 23.89° C | 60% | 1008.6 hPa | 0 mm | 0.45 m/s, 144° | 87 W/m² | - |
| 1787930718 | 23.89° C | 60% | 1008.7 hPa | 0 mm | 0.89 m/s, 55° | 86 W/m² | - |
| 1787930658 | 23.89° C | 59% | 1008.6 hPa | 0 mm | 1.34 m/s, 6° | 86 W/m² | - |
| 1787930598 | 23.89° C | 59% | 1008.9 hPa | 0 mm | 0.45 m/s, 45° | 85 W/m² | - |
| 1787930538 | 23.89° C | 59% | 1008.7 hPa | 0 mm | 0.89 m/s, 71° | 85 W/m² | - |
| 1787930478 | 23.89° C | 58% | 1008.7 hPa | 0 mm | 1.34 m/s, 20° | 86 W/m² | - |
| 1787930418 | 23.89° C | 59% | 1008.8 hPa | 0 mm | 0 m/s | 85 W/m² | - |
| 1787930358 | 23.89° C | 59% | 1009.1 hPa | 0 mm | 0.89 m/s, 91° | 84 W/m² | - |
| 1787930298 | 23.89° C | 58% | 1008.9 hPa | 0 mm | 0.45 m/s, 19° | 84 W/m² | - |
| 1787930238 | 23.89° C | 58% | 1009 hPa | 0 mm | 0.45 m/s, 17° | 83 W/m² | - |
| 1787930178 | 23.89° C | 58% | 1009 hPa | 0 mm | 0.89 m/s, 15° | 82 W/m² | - |
| 1787930118 | 23.89° C | 57% | 1009.1 hPa | 0 mm | 1.79 m/s, 26° | 78 W/m² | - |
| 1787930059 | 23.89° C | 57% | 1008.9 hPa | 0 mm | 2.24 m/s, 25° | 74 W/m² | - |
| 1787929998 | 23.89° C | 57% | 1009.1 hPa | 0 mm | 0.45 m/s, 324° | 69 W/m² | - |
| 1787929938 | 23.89° C | 57% | 1009 hPa | 0 mm | 0.45 m/s, 233° | 67 W/m² | - |
| 1787929878 | 23.89° C | 57% | 1008.8 hPa | 0 mm | 1.34 m/s, 3° | 63 W/m² | - |
| 1787929818 | 23.89° C | 57% | 1008.7 hPa | 0 mm | 0.89 m/s, 352° | 59 W/m² | - |
| 1787929758 | 23.89° C | 57% | 1008.8 hPa | 0 mm | 0.89 m/s, 7° | 56 W/m² | - |
* Rain latest hour (hover to see other rain measurements)
** Current wind speed in m/s (hover to see current wind gust speed)